createdAt,value
2022-09-17T00:01:29.695Z,1.60
2022-09-17T00:04:02.342Z,1.40
2022-09-17T00:06:30.451Z,1.27
2022-09-17T00:08:57.850Z,1.75
2022-09-17T00:11:29.286Z,1.60
2022-09-17T00:13:58.722Z,1.40
2022-09-17T00:16:34.088Z,1.40
2022-09-17T00:19:02.935Z,1.33
2022-09-17T00:21:31.050Z,1.67
2022-09-17T00:24:01.124Z,1.65
2022-09-17T00:26:30.025Z,1.40
2022-09-17T00:28:58.546Z,1.08
2022-09-17T00:31:27.479Z,1.70
2022-09-17T00:33:55.526Z,1.23
2022-09-17T00:36:23.492Z,1.30
2022-09-17T00:38:52.606Z,1.45
2022-09-17T00:41:21.721Z,1.38
2022-09-17T00:43:53.187Z,1.30
2022-09-17T00:46:40.977Z,1.50
2022-09-17T00:49:17.682Z,1.45
2022-09-17T00:52:10.415Z,1.50
2022-09-17T00:54:40.544Z,1.40
2022-09-17T00:57:08.431Z,1.30
2022-09-17T00:59:35.982Z,1.30
2022-09-17T01:02:05.002Z,1.30
2022-09-17T01:04:32.482Z,1.50
2022-09-17T01:07:11.839Z,1.08
2022-09-17T01:10:04.417Z,1.45
2022-09-17T01:12:56.392Z,1.20
2022-09-17T01:15:29.656Z,0.93
2022-09-17T01:18:07.085Z,1.00
2022-09-17T01:21:08.563Z,1.27
2022-09-17T01:23:54.898Z,1.10
2022-09-17T01:26:43.742Z,0.90
2022-09-17T01:29:29.921Z,1.05
2022-09-17T01:32:09.635Z,1.13
2022-09-17T01:35:13.399Z,1.10
2022-09-17T01:38:01.420Z,0.90
2022-09-17T01:40:47.613Z,1.13
2022-09-17T01:43:33.778Z,1.00
2022-09-17T01:46:08.410Z,1.00
2022-09-17T01:48:46.365Z,1.10
2022-09-17T01:51:21.344Z,1.10
2022-09-17T01:54:18.732Z,1.02
2022-09-17T01:57:11.590Z,0.90
2022-09-17T02:00:02.229Z,0.90
2022-09-17T02:02:45.913Z,1.05
2022-09-17T02:05:26.425Z,1.20
2022-09-17T02:08:10.899Z,1.10
2022-09-17T02:10:49.892Z,1.05
2022-09-17T02:13:52.510Z,0.98
2022-09-17T02:16:25.685Z,1.00
2022-09-17T02:19:23.966Z,0.98
2022-09-17T02:22:03.938Z,0.95
2022-09-17T02:24:40.402Z,1.10
2022-09-17T02:27:11.838Z,1.13
2022-09-17T02:29:42.742Z,1.10
2022-09-17T02:32:11.681Z,1.00
2022-09-17T02:34:39.508Z,1.02
2022-09-17T02:37:07.860Z,0.80
2022-09-17T02:39:35.536Z,1.02
2022-09-17T02:42:22.681Z,0.90
2022-09-17T02:45:20.202Z,1.10
2022-09-17T02:48:25.691Z,1.17
2022-09-17T02:51:07.975Z,1.02
2022-09-17T02:53:45.289Z,1.20
2022-09-17T02:56:28.221Z,0.90
2022-09-17T02:59:09.534Z,1.30
2022-09-17T03:01:45.327Z,1.40
2022-09-17T03:04:17.514Z,1.58
2022-09-17T03:06:48.346Z,1.30
2022-09-17T03:09:16.261Z,1.50
2022-09-17T03:11:43.817Z,1.45
2022-09-17T03:14:11.348Z,1.40
2022-09-17T03:16:38.892Z,1.50
2022-09-17T03:19:06.592Z,1.30
2022-09-17T03:21:34.010Z,1.40
2022-09-17T03:24:01.706Z,1.20
2022-09-17T03:26:29.185Z,1.80
2022-09-17T03:28:57.542Z,1.40
2022-09-17T03:31:25.195Z,1.52
2022-09-17T03:33:52.792Z,2.00
2022-09-17T03:36:20.425Z,1.17
2022-09-17T03:38:48.393Z,2.25
2022-09-17T03:41:15.925Z,1.75
2022-09-17T03:43:43.605Z,1.60
2022-09-17T03:46:11.162Z,1.53
2022-09-17T03:48:39.925Z,1.38
2022-09-17T03:51:07.645Z,1.40
2022-09-17T03:53:35.663Z,1.65
2022-09-17T03:56:05.208Z,1.50
2022-09-17T03:58:33.598Z,1.48
2022-09-17T04:01:00.966Z,1.40
2022-09-17T04:03:29.570Z,1.40
2022-09-17T04:05:57.455Z,1.35
2022-09-17T04:08:25.029Z,1.10
2022-09-17T04:10:52.398Z,0.98
2022-09-17T04:13:20.287Z,0.95
2022-09-17T04:15:48.478Z,1.00
2022-09-17T04:18:15.942Z,0.98
2022-09-17T04:20:43.863Z,1.20
2022-09-17T04:23:13.183Z,1.10
2022-09-17T04:25:41.241Z,1.02
2022-09-17T04:28:08.990Z,1.10
2022-09-17T04:30:36.801Z,1.20
2022-09-17T04:33:05.653Z,1.10
2022-09-17T04:35:33.330Z,1.00
2022-09-17T04:38:00.923Z,1.45
2022-09-17T04:40:29.150Z,1.08
2022-09-17T04:42:59.782Z,1.00
2022-09-17T04:45:27.561Z,1.10
2022-09-17T04:47:55.056Z,1.00
2022-09-17T04:50:22.882Z,0.90
2022-09-17T04:52:50.445Z,1.05
2022-09-17T04:55:17.905Z,1.25
2022-09-17T04:57:50.340Z,1.50
2022-09-17T05:00:19.163Z,1.60
2022-09-17T05:02:48.884Z,1.30
2022-09-17T05:05:18.190Z,1.40
2022-09-17T05:07:46.114Z,1.60
2022-09-17T05:10:15.404Z,1.70
2022-09-17T05:12:48.598Z,1.55
2022-09-17T05:15:16.221Z,1.65
2022-09-17T05:17:43.617Z,1.40
2022-09-17T05:20:12.495Z,1.55
2022-09-17T05:22:51.656Z,1.70
2022-09-17T05:25:24.273Z,1.70
2022-09-17T05:27:53.581Z,1.73
2022-09-17T05:30:21.295Z,2.25
2022-09-17T05:32:49.025Z,2.20
2022-09-17T05:35:16.699Z,1.85
2022-09-17T05:37:44.259Z,2.90
2022-09-17T05:40:11.890Z,2.00
2022-09-17T05:42:39.749Z,2.08
2022-09-17T05:45:07.836Z,2.20
2022-09-17T05:47:38.339Z,1.70
2022-09-17T05:50:06.572Z,2.05
2022-09-17T05:52:34.165Z,1.50
2022-09-17T05:55:02.848Z,1.33
2022-09-17T05:57:30.827Z,1.65
2022-09-17T05:59:58.424Z,1.45
2022-09-17T06:02:26.117Z,1.95
2022-09-17T06:04:53.980Z,1.45
2022-09-17T06:07:21.625Z,1.50
2022-09-17T06:09:49.334Z,1.58
2022-09-17T06:12:16.850Z,1.13
2022-09-17T06:14:44.301Z,1.40
2022-09-17T06:17:11.849Z,1.38
2022-09-17T06:19:39.313Z,1.20
2022-09-17T06:22:06.861Z,1.67
2022-09-17T06:24:34.269Z,1.90
2022-09-17T06:27:01.781Z,1.50
2022-09-17T06:29:30.760Z,1.65
2022-09-17T06:31:58.953Z,2.35
2022-09-17T06:34:27.549Z,2.15
2022-09-17T06:36:55.300Z,2.10
2022-09-17T06:39:22.765Z,2.15
2022-09-17T06:41:53.453Z,2.30
2022-09-17T06:44:21.886Z,2.47
2022-09-17T06:46:52.958Z,2.60
2022-09-17T06:49:20.722Z,2.80
2022-09-17T06:51:48.181Z,2.00
2022-09-17T06:54:15.645Z,2.08
2022-09-17T06:56:43.202Z,2.28
2022-09-17T06:59:10.752Z,2.00
2022-09-17T07:01:38.499Z,1.90
2022-09-17T07:04:06.712Z,1.93
2022-09-17T07:06:34.416Z,1.80
2022-09-17T07:09:01.904Z,1.60
2022-09-17T07:11:31.738Z,1.30
2022-09-17T07:13:59.652Z,1.52
2022-09-17T07:16:27.100Z,1.80
2022-09-17T07:18:54.701Z,1.88
2022-09-17T07:21:22.439Z,1.90
2022-09-17T07:23:52.019Z,1.83
2022-09-17T07:26:20.153Z,1.70
2022-09-17T07:28:50.428Z,1.38
2022-09-17T07:31:18.027Z,1.30
2022-09-17T07:33:45.992Z,1.10
2022-09-17T07:36:15.768Z,1.25
2022-09-17T07:38:43.222Z,1.05
2022-09-17T07:41:13.963Z,1.50
2022-09-17T07:43:42.867Z,1.20
2022-09-17T07:46:18.741Z,1.20
2022-09-17T07:48:48.066Z,0.93
2022-09-17T07:51:20.632Z,1.10
2022-09-17T07:53:50.945Z,1.10
2022-09-17T07:56:18.363Z,0.93
2022-09-17T07:58:45.901Z,1.20
2022-09-17T08:01:16.914Z,1.70
2022-09-17T08:03:52.285Z,1.40
2022-09-17T08:06:23.126Z,1.48
2022-09-17T08:08:50.699Z,1.40
2022-09-17T08:11:44.722Z,1.55
2022-09-17T08:14:12.950Z,1.30
2022-09-17T08:16:40.891Z,1.60
2022-09-17T08:19:10.904Z,2.03
2022-09-17T08:21:39.127Z,1.95
2022-09-17T08:24:06.723Z,1.70
2022-09-17T08:26:34.415Z,1.70
2022-09-17T08:29:01.965Z,1.67
2022-09-17T08:31:30.839Z,1.83
2022-09-17T08:33:58.583Z,1.85
2022-09-17T08:36:26.677Z,2.00
2022-09-17T08:38:55.773Z,2.03
2022-09-17T08:41:43.229Z,1.73
2022-09-17T08:44:36.862Z,2.03
2022-09-17T08:47:36.762Z,2.10
2022-09-17T08:50:18.392Z,1.98
2022-09-17T08:53:07.080Z,2.30
2022-09-17T08:55:46.554Z,1.80
2022-09-17T08:58:33.715Z,1.83
2022-09-17T09:01:38.908Z,1.80
2022-09-17T09:04:43.013Z,1.70
2022-09-17T09:07:26.464Z,1.98
2022-09-17T09:10:14.304Z,1.65
2022-09-17T09:12:43.756Z,1.90
2022-09-17T09:15:42.824Z,1.70
2022-09-17T09:18:21.028Z,1.80
2022-09-17T09:21:27.315Z,1.88
2022-09-17T09:24:10.048Z,1.95
2022-09-17T09:26:54.191Z,1.83
2022-09-17T09:29:47.919Z,2.10
2022-09-17T09:32:56.734Z,2.20
2022-09-17T09:35:25.758Z,2.60
2022-09-17T09:38:21.761Z,1.73
2022-09-17T09:41:21.597Z,1.80
2022-09-17T09:44:05.066Z,1.73
2022-09-17T09:46:51.609Z,1.87
2022-09-17T09:50:00.236Z,1.73
2022-09-17T09:52:37.103Z,1.80
2022-09-17T09:55:36.103Z,2.00
2022-09-17T09:58:25.259Z,1.63
2022-09-17T10:00:52.975Z,1.58
2022-09-17T10:03:28.447Z,1.40
2022-09-17T10:06:08.859Z,1.30
2022-09-17T10:08:39.416Z,1.63
2022-09-17T10:11:16.860Z,1.60
2022-09-17T10:13:44.472Z,1.75
2022-09-17T10:16:25.492Z,1.55
2022-09-17T10:19:08.313Z,1.50
2022-09-17T10:21:38.285Z,1.50
2022-09-17T10:24:25.550Z,1.25
2022-09-17T10:27:01.934Z,1.60
2022-09-17T10:29:29.768Z,1.63
2022-09-17T10:31:58.394Z,1.50
2022-09-17T10:34:29.213Z,1.50
2022-09-17T10:36:57.560Z,1.75
2022-09-17T10:39:32.957Z,1.52
2022-09-17T10:42:14.281Z,1.40
2022-09-17T10:44:59.260Z,1.58
2022-09-17T10:47:37.362Z,1.63
2022-09-17T10:50:05.039Z,1.58
2022-09-17T10:52:47.315Z,1.50
2022-09-17T10:55:33.942Z,1.70
2022-09-17T10:58:25.105Z,1.50
2022-09-17T11:01:18.323Z,1.40
2022-09-17T11:04:06.197Z,1.40
2022-09-17T11:07:21.459Z,1.30
2022-09-17T11:10:12.884Z,1.15
2022-09-17T11:12:57.122Z,1.20
2022-09-17T11:15:24.766Z,1.30
2022-09-17T11:18:04.042Z,1.20
2022-09-17T11:20:57.637Z,1.37
2022-09-17T11:23:39.646Z,1.10
2022-09-17T11:26:27.843Z,1.20
2022-09-17T11:29:04.236Z,1.10
2022-09-17T11:31:59.973Z,1.30
2022-09-17T11:34:43.097Z,1.25
2022-09-17T11:37:16.599Z,1.20
2022-09-17T11:39:59.386Z,1.25
2022-09-17T11:42:36.798Z,1.40
2022-09-17T11:45:27.869Z,1.25
2022-09-17T11:48:17.925Z,1.00
2022-09-17T11:50:54.845Z,1.13
2022-09-17T11:53:40.099Z,1.10
2022-09-17T11:56:24.753Z,0.83
2022-09-17T11:59:18.911Z,1.00
2022-09-17T12:02:24.338Z,0.90
2022-09-17T12:05:01.842Z,0.88
2022-09-17T12:07:47.840Z,0.70
2022-09-17T12:10:27.389Z,0.95
2022-09-17T12:13:04.018Z,0.90
2022-09-17T12:15:38.806Z,0.75
2022-09-17T12:18:46.071Z,0.70
2022-09-17T12:21:19.360Z,0.80
2022-09-17T12:23:53.493Z,0.70
2022-09-17T12:26:54.387Z,1.00
2022-09-17T12:29:58.208Z,0.80
2022-09-17T12:32:33.706Z,0.60
2022-09-17T12:35:53.088Z,0.70
2022-09-17T12:38:50.616Z,0.70
2022-09-17T12:41:39.567Z,0.60
2022-09-17T12:44:28.251Z,0.70
2022-09-17T12:47:13.834Z,0.60
2022-09-17T12:49:54.802Z,0.60
2022-09-17T12:52:46.570Z,0.50
2022-09-17T12:55:53.143Z,0.60
2022-09-17T12:59:06.633Z,0.60
2022-09-17T13:01:49.345Z,0.63
2022-09-17T13:04:59.586Z,0.68
2022-09-17T13:07:43.974Z,0.60
2022-09-17T13:10:33.316Z,0.60
2022-09-17T13:13:20.847Z,0.60
2022-09-17T13:16:26.093Z,0.40
2022-09-17T13:19:15.543Z,0.60
2022-09-17T13:22:00.586Z,0.70
2022-09-17T13:24:31.512Z,0.70
2022-09-17T13:27:02.284Z,0.60
2022-09-17T13:29:55.624Z,0.45
2022-09-17T13:32:35.685Z,0.60
2022-09-17T13:35:12.319Z,0.70
2022-09-17T13:37:58.199Z,0.60
2022-09-17T13:40:31.545Z,0.60
2022-09-17T13:43:06.481Z,0.95
2022-09-17T13:45:35.334Z,0.70
2022-09-17T13:48:11.851Z,0.52
2022-09-17T13:50:42.279Z,0.67
2022-09-17T13:53:15.769Z,0.63
2022-09-17T13:55:51.396Z,0.43
2022-09-17T13:58:21.780Z,0.50
2022-09-17T14:01:02.161Z,0.68
2022-09-17T14:03:37.032Z,0.60
2022-09-17T14:06:19.001Z,0.50
2022-09-17T14:08:52.355Z,0.60
2022-09-17T14:11:22.983Z,0.70
2022-09-17T14:14:05.868Z,0.80
2022-09-17T14:16:41.245Z,0.52
2022-09-17T14:19:33.777Z,1.10
2022-09-17T14:22:14.886Z,0.50
2022-09-17T14:24:45.329Z,0.50
2022-09-17T14:27:31.775Z,0.60
2022-09-17T14:30:16.962Z,0.60
2022-09-17T14:33:09.489Z,0.50
2022-09-17T14:35:45.949Z,0.63
2022-09-17T14:38:34.586Z,0.60
2022-09-17T14:41:07.543Z,0.70
2022-09-17T14:44:03.134Z,0.60
2022-09-17T14:46:34.912Z,0.50
2022-09-17T14:49:25.111Z,0.63
2022-09-17T14:51:53.921Z,0.70
2022-09-17T14:54:35.791Z,0.70
2022-09-17T14:57:42.371Z,0.68
2022-09-17T15:00:22.321Z,0.50
2022-09-17T15:02:59.848Z,0.70
2022-09-17T15:05:34.486Z,0.70
2022-09-17T15:08:12.290Z,0.60
2022-09-17T15:11:02.549Z,0.80
2022-09-17T15:13:42.058Z,0.60
2022-09-17T15:16:30.876Z,0.70
2022-09-17T15:19:00.601Z,1.00
2022-09-17T15:21:42.177Z,0.40
2022-09-17T15:24:34.789Z,0.40
2022-09-17T15:27:28.859Z,0.50
2022-09-17T15:30:07.388Z,0.88
2022-09-17T15:32:35.244Z,0.50
2022-09-17T15:35:11.876Z,0.50
2022-09-17T15:38:18.533Z,0.43
2022-09-17T15:40:41.953Z,0.40
2022-09-17T15:43:29.736Z,0.52
2022-09-17T15:46:01.005Z,0.50
2022-09-17T15:48:28.504Z,0.52
2022-09-17T15:50:57.881Z,0.60
2022-09-17T15:53:30.552Z,2.78
2022-09-17T15:56:01.142Z,0.88
2022-09-17T15:58:50.912Z,0.50
2022-09-17T16:01:18.855Z,1.07
2022-09-17T16:03:46.497Z,0.45
2022-09-17T16:06:20.144Z,0.60
2022-09-17T16:08:50.143Z,0.70
2022-09-17T16:11:19.329Z,0.43
2022-09-17T16:13:50.823Z,0.40
2022-09-17T16:16:20.782Z,0.60
2022-09-17T16:18:49.407Z,0.60
2022-09-17T16:21:18.922Z,0.52
2022-09-17T16:23:47.232Z,0.57
2022-09-17T16:26:21.977Z,0.95
2022-09-17T16:28:54.375Z,1.77
2022-09-17T16:31:21.969Z,1.00
2022-09-17T16:33:49.594Z,0.50
2022-09-17T16:36:17.981Z,1.00
2022-09-17T16:38:45.512Z,0.70
2022-09-17T16:41:13.531Z,0.57
2022-09-17T16:43:41.052Z,0.70
2022-09-17T16:46:11.043Z,0.60
2022-09-17T16:48:38.939Z,0.52
2022-09-17T16:51:11.322Z,0.70
2022-09-17T16:53:40.105Z,1.00
2022-09-17T16:56:12.721Z,1.20
2022-09-17T16:58:41.711Z,1.20
2022-09-17T17:01:09.995Z,0.90
2022-09-17T17:03:37.618Z,1.03
2022-09-17T17:06:05.902Z,0.90
2022-09-17T17:08:34.374Z,0.98
2022-09-17T17:11:02.151Z,0.65
2022-09-17T17:13:29.653Z,0.70
2022-09-17T17:15:57.105Z,0.70
2022-09-17T17:18:25.347Z,0.68
2022-09-17T17:20:52.725Z,1.30
2022-09-17T17:23:21.340Z,0.60
2022-09-17T17:25:49.194Z,0.60
2022-09-17T17:28:16.680Z,1.20
2022-09-17T17:30:48.225Z,0.93
2022-09-17T17:33:15.819Z,0.70
2022-09-17T17:35:43.331Z,0.73
2022-09-17T17:38:11.510Z,0.60
2022-09-17T17:40:39.066Z,2.85
2022-09-17T17:43:06.636Z,0.70
2022-09-17T17:45:34.550Z,0.60
2022-09-17T17:48:02.404Z,0.60
2022-09-17T17:50:30.006Z,0.80
2022-09-17T17:52:57.980Z,2.20
2022-09-17T17:55:26.673Z,1.83
2022-09-17T17:58:01.432Z,0.70
2022-09-17T18:00:29.585Z,0.70
2022-09-17T18:02:57.156Z,0.80
2022-09-17T18:05:24.716Z,0.93
2022-09-17T18:07:52.162Z,0.50
2022-09-17T18:10:20.133Z,0.68
2022-09-17T18:12:50.805Z,0.85
2022-09-17T18:15:18.866Z,0.80
2022-09-17T18:17:48.249Z,0.65
2022-09-17T18:20:16.426Z,0.60
2022-09-17T18:22:43.964Z,0.80
2022-09-17T18:25:12.204Z,0.80
2022-09-17T18:27:40.051Z,0.80
2022-09-17T18:30:08.413Z,0.70
2022-09-17T18:32:39.911Z,0.70
2022-09-17T18:35:09.204Z,0.80
2022-09-17T18:37:36.734Z,1.20
2022-09-17T18:40:04.854Z,0.90
2022-09-17T18:42:32.366Z,0.90
2022-09-17T18:45:00.043Z,0.80
2022-09-17T18:47:27.494Z,1.05
2022-09-17T18:49:55.577Z,5.55
2022-09-17T18:52:23.068Z,8.05
2022-09-17T18:54:55.989Z,1.75
2022-09-17T18:57:27.188Z,0.93
2022-09-17T18:59:54.680Z,0.80
2022-09-17T19:02:22.168Z,0.82
2022-09-17T19:04:49.761Z,0.90
2022-09-17T19:07:17.230Z,0.93
2022-09-17T19:09:45.174Z,4.68
2022-09-17T19:12:12.567Z,4.68
2022-09-17T19:14:40.135Z,3.78
2022-09-17T19:17:09.222Z,1.45
2022-09-17T19:19:36.801Z,1.20
2022-09-17T19:22:04.597Z,0.87
2022-09-17T19:24:33.334Z,1.05
2022-09-17T19:27:01.934Z,1.05
2022-09-17T19:29:29.432Z,1.10
2022-09-17T19:31:57.031Z,1.00
2022-09-17T19:34:24.912Z,0.95
2022-09-17T19:36:52.424Z,1.30
2022-09-17T19:39:20.050Z,1.08
2022-09-17T19:41:47.446Z,1.00
2022-09-17T19:44:15.354Z,3.53
2022-09-17T19:46:43.105Z,8.68
2022-09-17T19:49:11.270Z,1.70
2022-09-17T19:51:38.682Z,1.17
2022-09-17T19:54:09.810Z,1.27
2022-09-17T19:56:37.654Z,0.90
2022-09-17T19:59:05.764Z,0.90
2022-09-17T20:01:35.227Z,0.90
2022-09-17T20:04:03.014Z,1.00
2022-09-17T20:06:35.483Z,1.00
2022-09-17T20:09:03.531Z,1.27
2022-09-17T20:11:32.788Z,1.35
2022-09-17T20:14:07.529Z,1.10
2022-09-17T20:16:36.875Z,4.88
2022-09-17T20:19:06.405Z,11.45
2022-09-17T20:21:35.113Z,1.85
2022-09-17T20:24:02.850Z,1.20
2022-09-17T20:26:30.496Z,1.10
2022-09-17T20:28:58.239Z,1.20
2022-09-17T20:31:31.702Z,1.27
2022-09-17T20:34:01.519Z,1.30
2022-09-17T20:36:31.264Z,1.17
2022-09-17T20:39:21.134Z,2.15
2022-09-17T20:41:46.669Z,3.00
2022-09-17T20:44:14.202Z,1.20
2022-09-17T20:46:41.905Z,1.23
2022-09-17T20:49:09.647Z,1.43
2022-09-17T20:51:37.359Z,1.40
2022-09-17T20:54:05.300Z,1.17
2022-09-17T20:56:34.550Z,1.40
2022-09-17T20:59:18.978Z,1.55
2022-09-17T21:01:49.966Z,1.20
2022-09-17T21:04:20.141Z,1.38
2022-09-17T21:06:50.985Z,1.20
2022-09-17T21:09:18.635Z,1.42
2022-09-17T21:11:48.178Z,1.50
2022-09-17T21:14:17.510Z,1.35
2022-09-17T21:16:46.082Z,1.30
2022-09-17T21:19:17.219Z,1.60
2022-09-17T21:21:45.251Z,1.50
2022-09-17T21:24:12.915Z,1.33
2022-09-17T21:26:40.503Z,1.30
2022-09-17T21:29:08.023Z,1.40
2022-09-17T21:31:37.268Z,1.35
2022-09-17T21:34:10.931Z,1.55
2022-09-17T21:36:41.195Z,1.20
2022-09-17T21:39:14.219Z,1.63
2022-09-17T21:41:44.135Z,1.20
2022-09-17T21:44:12.513Z,1.40
2022-09-17T21:46:41.449Z,1.20
2022-09-17T21:49:09.730Z,1.70
2022-09-17T21:51:39.959Z,1.30
2022-09-17T21:54:16.061Z,1.80
2022-09-17T21:56:44.968Z,1.70
2022-09-17T21:59:14.108Z,1.42
2022-09-17T22:01:48.384Z,1.60
2022-09-17T22:04:21.324Z,1.70
2022-09-17T22:06:50.231Z,1.65
2022-09-17T22:09:21.310Z,1.50
2022-09-17T22:11:49.731Z,1.87
2022-09-17T22:14:19.872Z,1.60
2022-09-17T22:16:51.134Z,1.60
2022-09-17T22:19:20.113Z,1.43
2022-09-17T22:21:51.711Z,1.80
2022-09-17T22:24:21.363Z,1.80
2022-09-17T22:26:55.977Z,1.60
2022-09-17T22:29:25.189Z,1.65
2022-09-17T22:31:53.179Z,1.70
2022-09-17T22:34:23.039Z,1.77
2022-09-17T22:36:51.031Z,1.75
2022-09-17T22:39:21.461Z,2.03
2022-09-17T22:41:50.431Z,2.00
2022-09-17T22:44:19.727Z,2.00
2022-09-17T22:46:49.827Z,2.20
2022-09-17T22:49:18.419Z,2.20
2022-09-17T22:51:47.400Z,2.47
2022-09-17T22:54:17.270Z,2.40
2022-09-17T22:56:45.730Z,1.90
2022-09-17T22:59:13.666Z,2.63
2022-09-17T23:01:42.123Z,3.35
2022-09-17T23:04:10.662Z,2.10
2022-09-17T23:06:42.313Z,2.45
2022-09-17T23:09:11.709Z,2.83
2022-09-17T23:11:40.149Z,2.75
2022-09-17T23:14:10.583Z,2.50
2022-09-17T23:16:43.821Z,2.72
2022-09-17T23:19:12.077Z,2.40
2022-09-17T23:21:40.103Z,2.70
2022-09-17T23:24:08.952Z,3.58
2022-09-17T23:26:36.422Z,2.95
2022-09-17T23:29:05.489Z,2.60
2022-09-17T23:31:35.362Z,2.65
2022-09-17T23:34:05.232Z,3.58
2022-09-17T23:36:37.254Z,2.60
2022-09-17T23:39:09.269Z,3.20
2022-09-17T23:41:40.149Z,3.47
2022-09-17T23:44:14.563Z,3.13
2022-09-17T23:46:43.031Z,4.00
2022-09-17T23:49:11.965Z,4.03
2022-09-17T23:51:39.584Z,3.97
2022-09-17T23:54:09.304Z,4.30
2022-09-17T23:56:37.089Z,4.68
2022-09-17T23:59:05.269Z,4.43
